Latest Coastal Weather Observations for Gabo Island

IDV60701

Issued at 2:52 pm EST Saturday 22 July 2017 (issued every 10 minutes, with the page automatically refreshed every 10 minutes)

About coastal observations | Map of coastal stations | Coastal observations for VIC | Marine services | Other Formats
Station Details ID: 084016 Name: GABO ISLAND LIGHTHOUSE Lat: -37.57 Lon: 149.92 Height: 15.2 m
Data from the previous 72 hours. | See also: Recent months at Gabo Island
Date/Time
EST
Temp
°C
Wind Pressure Rain since
9am
mm
Weather Cloud Vis
km
Sea
Height
m
Swell
Dir  Spd
kts
Gust
kts
hPa Trend Height
m
Period
s
Dir
22/02:30pm 14.3 NE 9 11 1015.9 - 0.0 - - - - - - -
22/02:00pm 14.5 ENE 4 5 1016.2 - 0.0 - - - - - - -
22/01:30pm 14.1 E 3 4 1016.8 - 0.0 - - - - - - -
22/01:00pm 14.0 E 4 5 1017.2 - 0.0 - - - - - - -
22/12:30pm 13.4 S 4 7 1018.0 - 0.0 - - - - - - -
22/12:00pm 13.0 WSW 5 7 1018.8 - 0.0 - - - - - - -
22/11:30am 13.2 WSW 5 6 1019.1 - 0.0 - - - - - - -
22/11:00am 13.2 WNW 5 7 1019.8 - 0.0 - - - - - - -
22/10:30am 12.7 NW 5 6 1020.1 - 0.0 - - - - - - -
22/10:00am 11.9 NW 5 7 1020.3 - 0.0 - - - - - - -
22/09:30am 10.4 NW 5 7 1020.4 - 0.0 - - - - - - -
22/09:00am 8.9 W 7 10 1020.7 - 0.0 Fine Clear 40 1 3.0 8 SE
22/08:30am 8.6 W 1 5 1020.6 - 0.0 - - - - - - -
22/08:00am 7.7 NNW 4 7 1020.5 - 0.0 - - - - - - -
22/07:30am 6.6 WNW 8 10 1020.7 - 0.0 - - - - - - -
22/07:00am 7.2 WNW 7 8 1020.8 - 0.0 - - - - - - -
22/06:30am 7.0 WNW 6 8 1020.3 - 0.0 - - - - - - -
22/06:00am 6.1 W 9 9 1020.3 - 0.0 - - - - - - -
22/05:30am 6.8 W 9 11 1020.3 - 0.0 - - - - - - -
22/05:00am 6.5 WNW 8 9 1020.1 - 0.0 - - - - - - -
22/04:30am 6.4 WNW 9 11 1020.3 - 0.0 - - - - - - -
22/04:00am 6.3 WNW 9 10 1020.3 - 0.0 - - - - - - -
22/03:30am 7.1 WNW 9 11 1020.7 - 0.0 - - - - - - -
22/03:00am 8.4 NW 8 9 1020.9 - 0.0 Fine Clear 30 1 2.5 8 S
22/02:30am 7.7 WNW 8 10 1021.2 - 0.0 - - - - - - -
22/02:00am 7.6 WNW 9 11 1021.5 - 0.0 - - - - - - -
22/01:30am 8.1 NW 8 9 1021.4 - 0.0 - - - - - - -
22/01:00am 8.3 NW 9 11 1021.7 - 0.0 - - - - - - -
22/12:30am 8.4 NW 10 12 1022.4 - 0.0 - - - - - - -
22/12:00am 8.2 NW 10 12 1022.6 - 0.0 - - - - - - -
 
Date/Time
EST
Temp
°C
Wind Pressure Rain since
9am
mm
Weather Cloud Vis
km
Sea
Height
m
Swell
Dir  Spd
kts
Gust
kts
hPa Trend Height
m
Period
s
Dir
21/11:30pm 8.5 NW 10 13 1022.8 - 0.0 - - - - - - -
21/11:00pm 8.5 NW 9 11 1022.8 - 0.0 - - - - - - -
21/10:30pm 8.8 WNW 8 10 1022.9 - 0.0 - - - - - - -
21/10:00pm 9.1 WNW 8 10 1022.9 - 0.0 - - - - - - -
21/09:30pm 9.5 WNW 9 11 1023.0 - 0.0 - - - - - - -
21/09:00pm 9.4 WNW 9 11 1022.9 - 0.0 Fine Mostly cloudy 30 3 2.5 8 S
21/08:30pm 9.2 WNW 9 11 1023.0 - 0.0 - - - - - - -
21/08:00pm 9.4 WNW 10 13 1023.0 - 0.0 - - - - - - -
21/07:30pm 9.8 W 11 14 1022.7 - 0.0 - - - - - - -
21/07:00pm 10.6 WSW 14 17 1022.6 - 0.0 - - - - - - -
21/06:30pm 10.7 WSW 14 17 1022.4 - 0.0 - - - - - - -
21/06:00pm 10.9 WSW 17 21 1022.1 - 0.0 - - - - - - -
21/05:30pm 11.3 WSW 18 23 1022.0 - 0.0 - - - - - - -
21/05:00pm 11.5 WSW 19 23 1021.7 - 0.0 - - - - - - -
21/04:30pm 11.7 WSW 21 25 1021.6 - 0.0 - - - - - - -
21/04:00pm 11.9 WSW 20 26 1021.6 - 0.0 - - - - - - -
21/03:30pm 12.1 WSW 21 25 1021.4 - 0.0 - - - - - - -
21/03:00pm 12.4 WSW 22 27 1021.3 - 0.0 Fine Mostly cloudy 20 3 2.5 8 S
21/02:30pm 12.3 WSW 21 25 1021.3 - 0.0 - - - - - - -
21/02:00pm 12.6 WSW 19 24 1021.2 - 0.0 - - - - - - -
21/01:30pm 12.5 WSW 23 29 1021.1 - 0.0 - - - - - - -
21/01:00pm 12.0 SW 25 29 1021.3 - 0.0 - - - - - - -
21/12:30pm 11.9 WSW 19 24 1021.5 - 0.0 - - - - - - -
21/12:00pm 12.1 WSW 19 24 1021.5 - 0.0 - - - - - - -
21/11:30am 11.8 WSW 23 28 1021.7 - 0.0 - - - - - - -
21/11:00am 11.5 WSW 18 23 1022.0 - 0.0 - - - - - - -
21/10:30am 10.9 W 19 25 1021.9 - 0.0 - - - - - - -
21/10:00am 10.9 W 19 23 1021.8 - 0.0 - - - - - - -
21/09:30am 10.2 W 19 23 1021.6 - 0.0 - - - - - - -
21/09:00am 9.9 W 18 22 1021.3 - 10.0 Fine Mostly cloudy 20 3 2.5 8 S
21/08:30am 10.1 WSW 15 20 1021.2 - 10.0 - - - - - - -
21/08:00am 9.4 WSW 17 22 1020.8 - 10.0 - - - - - - -
21/07:30am 9.3 W 19 22 1020.2 - 8.8 - - - - - - -
21/07:00am 9.3 W 19 23 1020.2 - 8.8 - - - - - - -
21/06:30am 9.1 W 19 25 1020.0 - 8.4 - - - - - - -
21/06:00am 8.7 W 17 23 1019.7 - 8.4 - - - - - - -
21/05:30am 8.5 W 18 25 1019.2 - 8.4 - - - - - - -
21/05:00am 8.9 W 18 22 1019.1 - 8.4 - - - - - - -
21/04:30am 8.7 W 21 24 1018.8 - 8.4 - - - - - - -
21/04:00am 8.6 W 20 24 1018.3 - 8.4 - - - - - - -
21/03:30am 8.5 W 21 26 1018.5 - 8.4 - - - - - - -
21/03:00am 8.6 W 20 24 1018.3 - 8.4 Rain Cloudy 10 5 2.5 8 S
21/02:30am 8.3 W 18 22 1018.5 - 8.2 - - - - - - -
21/02:00am 8.5 W 21 26 1018.2 - 8.2 - - - - - - -
21/01:30am 8.6 W 22 26 1017.9 - 8.2 - - - - - - -
21/01:00am 8.6 WSW 23 29 1017.7 - 8.2 - - - - - - -
21/12:30am 8.3 W 21 27 1017.2 - 7.8 - - - - - - -
21/12:00am 8.5 W 20 26 1017.3 - 7.8 - - - - - - -
 
Date/Time
EST
Temp
°C
Wind Pressure Rain since
9am
mm
Weather Cloud Vis
km
Sea
Height
m
Swell
Dir  Spd
kts
Gust
kts
hPa Trend Height
m
Period
s
Dir
20/11:30pm 8.5 W 20 24 1017.2 - 7.8 - - - - - - -
20/11:00pm 8.8 W 22 27 1017.0 - 7.8 - - - - - - -
20/10:30pm 8.8 W 21 25 1016.9 - 7.6 - - - - - - -
20/10:00pm 8.8 WSW 17 23 1017.0 - 7.6 - - - - - - -
20/09:30pm 9.0 W 22 28 1016.2 - 5.8 - - - - - - -
20/09:00pm 10.2 SW 31 39 1015.8 - 5.8 Rain Cloudy 10 5 2.5 8 S
20/08:52pm 10.3 SW 35 39 1015.8 - 5.8 - - - - - - -
20/08:35pm 9.4 WSW 22 32 1015.7 - 5.8 - - - - - - -
20/08:30pm 8.9 WSW 21 28 1015.7 - 5.6 - - - - - - -
20/08:00pm 8.5 W 26 31 1014.6 - 5.4 - - - - - - -
20/07:30pm 8.7 W 27 32 1014.6 - 5.4 - - - - - - -
20/07:00pm 8.9 W 26 33 1014.6 - 5.4 - - - - - - -
20/06:30pm 8.7 W 25 31 1014.2 - 5.4 - - - - - - -
20/06:00pm 8.6 W 27 32 1013.7 - 5.4 Recent precip. - - - - - -
20/05:47pm 8.8 W 25 35 1013.5 - 5.4 - - - - - - -
20/05:30pm 9.0 W 25 34 1013.3 - 5.2 - - - - - - -
20/05:16pm 9.4 WSW 28 39 1012.9 - 5.2 - - - - - - -
20/05:00pm 9.4 W 27 36 1012.6 - 5.2 - - - - - - -
20/04:56pm 9.2 W 26 36 1012.5 - 5.2 - - - - - - -
20/04:30pm 9.4 W 24 32 1012.3 - 5.2 - - - - - - -
20/04:14pm 9.8 WSW 27 37 1012.0 - 5.2 - - - - - - -
20/04:00pm 9.6 WSW 28 35 1012.0 - 5.2 - - - - - - -
20/03:37pm 9.3 W 27 37 1011.7 - 5.2 - - - - - - -
20/03:30pm 9.4 W 26 33 1011.7 - 5.2 - - - - - - -
20/03:03pm 9.9 WSW 27 37 1011.2 - 5.0 - - - - - - -
20/03:00pm 10.0 W 24 34 1010.9 - 5.0 Rain Cloudy 5 5 2.5 8 S
20/02:30pm 9.1 WSW 29 43 1010.8 - 5.0 - - - - - - -
20/02:03pm 9.1 WSW 31 41 1010.1 - 4.2 - - - - - - -
20/02:00pm 9.0 WSW 30 38 1009.9 - 4.2 - - - - - - -
20/01:30pm 10.3 SW 30 43 1009.7 - 4.0 - - - - - - -
20/01:17pm 9.8 WSW 28 39 1009.4 - 4.0 - - - - - - -
20/01:00pm 9.9 WSW 24 29 1009.6 - 4.0 - - - - - - -
20/12:30pm 8.7 W 29 36 1009.7 - 4.0 - - - - - - -
20/12:06pm 9.0 W 28 38 1009.7 - 4.0 - - - - - - -
20/12:00pm 8.8 W 30 38 1009.6 - 4.0 Recent precip. - - - - - -
20/11:37am 8.4 WSW 29 39 1010.1 - 4.0 - - - - - - -
20/11:30am 8.2 WSW 32 39 1010.2 - 3.8 - - - - - - -
20/11:00am 8.6 WSW 30 38 1010.4 - 2.6 - - - - - - -
20/10:32am 8.5 WSW 32 42 1010.6 - 1.6 - - - - - - -
20/10:30am 8.9 WSW 32 39 1010.6 - 1.4 - - - - - - -
20/10:20am 8.5 WSW 32 42 1010.4 - 1.2 - - - - - - -
20/10:00am 9.2 WSW 30 39 1010.4 - 0.2 - - - - - - -
20/09:31am 9.6 W 30 40 1010.0 - 0.2 - - - - - - -
20/09:30am 9.5 W 29 38 1010.0 - 0.2 - - - - - - -
20/09:01am 9.8 WSW 29 39 1009.9 - 0.0 - - - - - - -
20/09:00am 9.4 WSW 31 39 1009.8 - 6.4 Rain Cloudy 5 5 2.5 8 S
20/08:53am 8.9 SW 33 43 1009.7 - 6.4 - - - - - - -
20/08:30am 10.2 W 29 40 1009.6 - 6.2 - - - - - - -
20/08:01am 10.0 W 28 38 1009.4 - 6.2 - - - - - - -
20/08:00am 8.6 W 28 37 1009.5 - 6.2 - - - - - - -
20/07:30am 10.3 W 31 39 1009.1 - 6.2 - - - - - - -
20/07:01am 10.4 W 30 40 1009.1 - 6.2 - - - - - - -
20/07:00am 10.5 W 31 40 1009.2 - 6.2 - - - - - - -
20/06:35am 10.7 W 29 39 1009.0 - 6.2 - - - - - - -
20/06:30am 10.6 WSW 29 37 1009.0 - 6.2 - - - - - - -
20/06:00am 10.6 W 27 34 1008.9 - 6.2 - - - - - - -
20/05:37am 10.6 W 29 39 1008.8 - 6.2 - - - - - - -
20/05:30am 10.6 W 28 35 1008.7 - 6.2 - - - - - - -
20/05:00am 10.5 W 28 40 1008.9 - 6.2 - - - - - - -
20/04:32am 10.3 W 26 36 1008.8 - 6.2 - - - - - - -
20/04:30am 10.4 W 27 36 1008.8 - 6.2 - - - - - - -
20/04:03am 10.3 W 27 37 1008.9 - 6.2 - - - - - - -
20/04:00am 10.2 W 27 35 1008.9 - 6.2 - - - - - - -
20/03:30am 10.2 W 28 37 1009.3 - 6.2 - - - - - - -
20/03:00am 9.9 W 29 35 1009.5 - 6.2 Fine Clear 30 3 1.5 8 S
20/02:44am 9.8 W 27 37 1009.5 - 6.2 - - - - - - -
20/02:30am 9.8 W 30 37 1009.5 - 6.2 - - - - - - -
20/02:00am 10.3 W 33 43 1009.6 - 6.2 - - - - - - -
20/01:48am 10.0 W 28 40 1009.6 - 6.2 - - - - - - -
20/01:30am 10.0 W 31 37 1009.5 - 6.2 - - - - - - -
20/01:00am 10.2 WSW 26 34 1009.7 - 6.2 - - - - - - -
20/12:30am 10.0 W 25 33 1010.0 - 6.2 - - - - - - -
20/12:00am 10.2 W 27 38 1010.2 - 6.2 - - - - - - -
 
Date/Time
EST
Temp
°C
Wind Pressure Rain since
9am
mm
Weather Cloud Vis
km
Sea
Height
m
Swell
Dir  Spd
kts
Gust
kts
hPa Trend Height
m
Period
s
Dir
19/11:53pm 10.2 WSW 27 38 1010.3 - 6.2 - - - - - - -
19/11:30pm 10.2 WSW 29 36 1010.2 - 6.2 - - - - - - -
19/11:00pm 10.5 WSW 29 37 1010.3 - 6.2 - - - - - - -
19/10:30pm 11.0 WSW 28 37 1010.5 - 6.2 - - - - - - -
19/10:00pm 11.0 WSW 29 37 1010.3 - 6.2 - - - - - - -
19/09:30pm 11.3 WSW 30 43 1009.9 - 6.2 - - - - - - -
19/09:01pm 11.4 WSW 28 38 1010.0 - 6.2 - - - - - - -
19/09:00pm 11.4 WSW 29 36 1010.0 - 6.2 Showers Mostly cloudy 20 3 2.0 8 S
19/08:45pm 11.5 WSW 29 39 1010.0 - 6.2 - - - - - - -
19/08:30pm 11.7 WSW 30 38 1009.9 - 6.2 - - - - - - -
19/08:00pm 11.7 WSW 28 37 1009.5 - 6.2 - - - - - - -
19/07:57pm 11.6 WSW 27 37 1009.5 - 6.2 - - - - - - -
19/07:30pm 11.8 WSW 26 34 1009.5 - 5.6 - - - - - - -
19/07:24pm 12.2 WSW 28 38 1009.4 - 5.6 - - - - - - -
19/07:00pm 13.2 SW 29 37 1008.9 - 5.6 - - - - - - -
19/06:30pm 13.0 SW 29 36 1008.5 - 5.6 - - - - - - -
19/06:00pm 13.3 SW 32 37 1008.0 - 5.6 Recent precip. - - - - - -
19/05:30pm 11.2 SW 30 44 1007.7 - 4.4 - - - - - - -
19/05:28pm 11.8 SW 28 42 1007.7 - 4.0 - - - - - - -
19/05:00pm 12.3 WSW 28 35 1007.2 - 4.0 - - - - - - -
19/04:30pm 11.9 WSW 29 36 1006.7 - 3.8 - - - - - - -
19/04:00pm 11.8 WSW 25 30 1006.4 - 3.2 - - - - - - -
19/03:30pm 12.2 WSW 25 32 1006.1 - 3.2 - - - - - - -
19/03:00pm 13.0 WSW 29 36 1005.6 - 3.2 Distant precip. Mostly cloudy 20 3 1.5 8 S

Other Formats:

Comma delimited format used in spreadsheet applications
http://www.bom.gov.au/fwo/IDV60701/IDV60701.94933.axf

JavaScript Object Notation format (JSON) in row-major order
http://www.bom.gov.au/fwo/IDV60701/IDV60701.94933.json